Weather at Dallas Fort Worth International Airport

Public forecast

Using degrees Fahrenheit for public forecast. Weather courtesy of forecast.io.

Current aviation weather report (METAR) for Dallas Fort Worth International Airport

Retrieved 2020/10/23 22:53 UTC (44 minutes ago):

KDFW 232253Z 34014KT 10SM BKN026 BKN080 12/06 A3016 RMK AO2 SLP210 T01220061

Aviation forecast (TAF) for Dallas Fort Worth International Airport

Retrieved 2020/10/23 18:30 UTC (5 hours ago):

TAF KDFW 231728Z 2318/2424 34017G27KT P6SM OVC012 FM240000 35015KT P6SM BKN025 FM240900 34012KT P6SM BKN040